Shirahamamaru — JG4872 — position and weather

sailwx.info

Track history (hours):
 
Tides and Currents Weather Stations Pressure Air Temp Water Temp Dewpoint Dewpoint Depression Visibility Wind Speed Wind Dir Waves Ship Positions

Shirahamamaru

Last reported at 2018-Jan-20 05:00 UTC. Time now 2018-Jan-20 05:30 UTC.
Position N 35°10' E 139°49'.

Length 79 m; draft 3.2 m.

Type: Passenger vessel. MMSI: 431000239.

Date/timePositionNaut miles runAvg speedWind from/ knotsBaromVisibWave heightAir tempDewpointWater temp
2018-Jan-20 05:00N 35°10' E 139°49'5 9.7
2018-Jan-20 04:31N 35°13' E 139°44'1 2.1
2018-Jan-20 04:00N 35°13' E 139°43'510.7
2018-Jan-20 03:30N 35°11' E 139°49'1 1.2
2018-Jan-20 03:00N 35°10' E 139°49'611.8
2018-Jan-20 02:30N 35°13' E 139°43'0 0.2
2018-Jan-20 02:01N 35°13' E 139°43'611.1
2018-Jan-20 01:30N 35°10' E 139°49'0 0.8
2018-Jan-20 01:00N 35°10' E 139°49'611.7
2018-Jan-20 00:30N 35°13' E 139°43'0 0.5
2018-Jan-20 00:00N 35°13' E 139°43'4 7.0
2018-Jan-19 23:30N 35°12' E 139°47'2 4.9
2018-Jan-19 23:00N 35°10' E 139°49'5 9.8
2018-Jan-19 22:31N 35°13' E 139°44'1 2.0
2018-Jan-19 21:59N 35°13' E 139°43'4 9.2
2018-Jan-19 21:30N 35°11' E 139°48'1 2.9
2018-Jan-19 21:00N 35°10' E 139°49'0 0.0
2018-Jan-19 10:57N 35°10' E 139°49'4 9.0
2018-Jan-19 10:30N 35°12' E 139°45'2 3.7
2018-Jan-19 10:00N 35°13' E 139°43'510.7
2018-Jan-19 09:30N 35°11' E 139°49'0 0.9
2018-Jan-19 09:00N 35°10' E 139°49'611.4
2018-Jan-19 08:30N 35°13' E 139°43'0 0.1
2018-Jan-19 08:00N 35°13' E 139°43'611.5
2018-Jan-19 07:30N 35°10' E 139°49'0 0.2
2018-Jan-19 07:00N 35°10' E 139°49'611.7
2018-Jan-19 06:30N 35°13' E 139°43'0 0.5
2018-Jan-19 06:00N 35°13' E 139°43'0 0.0
2018-Jan-19 05:30N 35°13' E 139°43'3 5.9
2018-Jan-19 05:00N 35°12' E 139°46'3 5.9
2018-Jan-19 04:30N 35°10' E 139°49'0 0.0
2018-Jan-19 04:00N 35°10' E 139°49'3 5.7
2018-Jan-19 03:30N 35°12' E 139°46'3 6.0
2018-Jan-19 03:00N 35°13' E 139°43'0 0.0
2018-Jan-19 02:30N 35°13' E 139°43'0 0.2
2018-Jan-19 02:00N 35°13' E 139°43'510.8
2018-Jan-19 01:30N 35°11' E 139°49'1 1.1
2018-Jan-19 01:00N 35°10' E 139°49'611.7
2018-Jan-19 00:30N 35°13' E 139°43'0 0.5
2018-Jan-19 00:00N 35°13' E 139°43'3 6.8
2018-Jan-18 23:30N 35°12' E 139°47'3 5.0
2018-Jan-18 23:00N 35°10' E 139°49'5 9.8
2018-Jan-18 22:31N 35°13' E 139°44'1 2.0
2018-Jan-18 22:00N 35°13' E 139°43'4 8.8
2018-Jan-18 21:30N 35°11' E 139°48'1 3.0
2018-Jan-18 21:00N 35°10' E 139°49'0 0.0
2018-Jan-18 10:57N 35°10' E 139°49'4 8.4
2018-Jan-18 10:30N 35°12' E 139°45'2 4.2
2018-Jan-18 10:00N 35°13' E 139°43'511.0
2018-Jan-18 09:31N 35°10' E 139°49'0 0.4
2018-Jan-18 09:01N 35°11' E 139°48'510.5
2018-Jan-18 08:30N 35°13' E 139°43'0 0.5
2018-Jan-18 08:00N 35°13' E 139°43'611.3
2018-Jan-18 07:30N 35°10' E 139°49'0 0.1
2018-Jan-18 07:00N 35°10' E 139°49'611.6
2018-Jan-18 06:31N 35°13' E 139°43'0 0.6
2018-Jan-18 06:00N 35°13' E 139°43'0 0.0
2018-Jan-18 05:31N 35°13' E 139°43'3 5.3
2018-Jan-18 05:01N 35°13' E 139°46'3 6.8
2018-Jan-18 04:30N 35°10' E 139°49'0 0.0
2018-Jan-18 04:00N 35°10' E 139°49'3 5.8
2018-Jan-18 03:30N 35°12' E 139°46'3 5.9
2018-Jan-18 03:01N 35°13' E 139°43'0 0.0
2018-Jan-18 02:31N 35°13' E 139°43'0 0.2
2018-Jan-18 02:00N 35°13' E 139°43'611.1
2018-Jan-18 01:31N 35°10' E 139°49'0 0.8
2018-Jan-18 01:00N 35°10' E 139°49'6 5.9
2018-Jan-18 00:01N 35°13' E 139°43'0 0.0
2018-Jan-17 23:58N 35°13' E 139°43'  
2018-Jan-12 10:56N 35°10' E 139°49'4 9.2
2018-Jan-12 10:30N 35°12' E 139°45'2 3.9
2018-Jan-12 10:00N 35°13' E 139°43'510.9
2018-Jan-12 09:31N 35°11' E 139°49'1 1.0
2018-Jan-12 09:00N 35°10' E 139°49'611.5
2018-Jan-12 08:31N 35°13' E 139°43'0 0.7
2018-Jan-12 08:00N 35°13' E 139°44'510.8
2018-Jan-12 07:31N 35°10' E 139°49'0 0.1
2018-Jan-12 07:00N 35°10' E 139°49'611.8
2018-Jan-12 06:30N 35°13' E 139°43'0 0.5
2018-Jan-12 06:00N 35°13' E 139°43'0 0.0
2018-Jan-12 05:30N 35°13' E 139°43'2 5.0
2018-Jan-12 05:00N 35°12' E 139°46'4 6.9
2018-Jan-12 04:30N 35°10' E 139°49'0 0.0
2018-Jan-12 04:00N 35°10' E 139°49'3 5.7
2018-Jan-12 03:30N 35°12' E 139°46'3 6.1
2018-Jan-12 03:00N 35°13' E 139°43'0 0.0
2018-Jan-12 02:29N 35°13' E 139°43'0 0.3
2018-Jan-12 02:00N 35°13' E 139°43'510.8
2018-Jan-12 01:30N 35°11' E 139°49'0 0.7
2018-Jan-12 01:00N 35°10' E 139°49'611.3
2018-Jan-12 00:30N 35°13' E 139°43'0 0.5
2018-Jan-11 23:59N 35°13' E 139°43'3 7.2
2018-Jan-11 23:30N 35°12' E 139°47'2 4.9
2018-Jan-11 23:00N 35°10' E 139°49'5 9.5
2018-Jan-11 22:30N 35°13' E 139°44'1 2.3
2018-Jan-11 22:00N 35°13' E 139°43'4 8.9
2018-Jan-11 21:30N 35°11' E 139°48'1 1.5
2018-Jan-11 21:00N 35°11' E 139°48'510.3
2018-Jan-11 20:30N 35°13' E 139°43'0 0.0
2018-Jan-11 01:42N 35°13' E 139°43'0 1.4
2018-Jan-11 01:30N 35°13' E 139°43'1 1.9
2018-Jan-11 01:00N 35°14' E 139°44'1 2.4
2018-Jan-11 00:30N 35°13' E 139°43'0 0.0
2018-Jan-11 00:00N 35°13' E 139°43'4 7.0
2018-Jan-10 23:30N 35°12' E 139°47'2 4.9
2018-Jan-10 23:01N 35°10' E 139°49'510.1
2018-Jan-10 22:30N 35°13' E 139°44'1 1.5
2018-Jan-10 22:00N 35°13' E 139°43'0 0.0
2018-Jan-10 07:53N 35°13' E 139°43'0 0.0
2018-Jan-10 07:30N 35°13' E 139°43'0 0.0
2018-Jan-10 07:00N 35°13' E 139°43'0 0.0
2018-Jan-10 06:30N 35°13' E 139°43'  
Track history (hours):
 
Tides and Currents Weather Stations Pressure Air Temp Water Temp Dewpoint Dewpoint Depression Visibility Wind Speed Wind Dir Waves Ship Positions

Shirahamamaru

Last reported at 2018-Jan-20 05:00 UTC. Time now 2018-Jan-20 05:30 UTC.
Position N 35°10' E 139°49'.

Length 79 m; draft 3.2 m.

Type: Passenger vessel. MMSI: 431000239.

Date/timePositionNaut miles runAvg speedWind from/ knotsBaromVisibWave heightAir tempDewpointWater temp
2018-Jan-20 05:00N 35°10' E 139°49'5 9.7
2018-Jan-20 04:31N 35°13' E 139°44'1 2.1
2018-Jan-20 04:00N 35°13' E 139°43'510.7
2018-Jan-20 03:30N 35°11' E 139°49'1 1.2
2018-Jan-20 03:00N 35°10' E 139°49'611.8
2018-Jan-20 02:30N 35°13' E 139°43'0 0.2
2018-Jan-20 02:01N 35°13' E 139°43'611.1
2018-Jan-20 01:30N 35°10' E 139°49'0 0.8
2018-Jan-20 01:00N 35°10' E 139°49'611.7
2018-Jan-20 00:30N 35°13' E 139°43'0 0.5
2018-Jan-20 00:00N 35°13' E 139°43'4 7.0
2018-Jan-19 23:30N 35°12' E 139°47'2 4.9
2018-Jan-19 23:00N 35°10' E 139°49'5 9.8
2018-Jan-19 22:31N 35°13' E 139°44'1 2.0
2018-Jan-19 21:59N 35°13' E 139°43'4 9.2
2018-Jan-19 21:30N 35°11' E 139°48'1 2.9
2018-Jan-19 21:00N 35°10' E 139°49'0 0.0
2018-Jan-19 10:57N 35°10' E 139°49'4 9.0
2018-Jan-19 10:30N 35°12' E 139°45'2 3.7
2018-Jan-19 10:00N 35°13' E 139°43'510.7
2018-Jan-19 09:30N 35°11' E 139°49'0 0.9
2018-Jan-19 09:00N 35°10' E 139°49'611.4
2018-Jan-19 08:30N 35°13' E 139°43'0 0.1
2018-Jan-19 08:00N 35°13' E 139°43'611.5
2018-Jan-19 07:30N 35°10' E 139°49'0 0.2
2018-Jan-19 07:00N 35°10' E 139°49'611.7
2018-Jan-19 06:30N 35°13' E 139°43'0 0.5
2018-Jan-19 06:00N 35°13' E 139°43'0 0.0
2018-Jan-19 05:30N 35°13' E 139°43'3 5.9
2018-Jan-19 05:00N 35°12' E 139°46'3 5.9
2018-Jan-19 04:30N 35°10' E 139°49'0 0.0
2018-Jan-19 04:00N 35°10' E 139°49'3 5.7
2018-Jan-19 03:30N 35°12' E 139°46'3 6.0
2018-Jan-19 03:00N 35°13' E 139°43'0 0.0
2018-Jan-19 02:30N 35°13' E 139°43'0 0.2
2018-Jan-19 02:00N 35°13' E 139°43'510.8
2018-Jan-19 01:30N 35°11' E 139°49'1 1.1
2018-Jan-19 01:00N 35°10' E 139°49'611.7
2018-Jan-19 00:30N 35°13' E 139°43'0 0.5
2018-Jan-19 00:00N 35°13' E 139°43'3 6.8
2018-Jan-18 23:30N 35°12' E 139°47'3 5.0
2018-Jan-18 23:00N 35°10' E 139°49'5 9.8
2018-Jan-18 22:31N 35°13' E 139°44'1 2.0
2018-Jan-18 22:00N 35°13' E 139°43'4 8.8
2018-Jan-18 21:30N 35°11' E 139°48'1 3.0
2018-Jan-18 21:00N 35°10' E 139°49'0 0.0
2018-Jan-18 10:57N 35°10' E 139°49'4 8.4
2018-Jan-18 10:30N 35°12' E 139°45'2 4.2
2018-Jan-18 10:00N 35°13' E 139°43'511.0
2018-Jan-18 09:31N 35°10' E 139°49'0 0.4
2018-Jan-18 09:01N 35°11' E 139°48'510.5
2018-Jan-18 08:30N 35°13' E 139°43'0 0.5
2018-Jan-18 08:00N 35°13' E 139°43'611.3
2018-Jan-18 07:30N 35°10' E 139°49'0 0.1
2018-Jan-18 07:00N 35°10' E 139°49'611.6
2018-Jan-18 06:31N 35°13' E 139°43'0 0.6
2018-Jan-18 06:00N 35°13' E 139°43'0 0.0
2018-Jan-18 05:31N 35°13' E 139°43'3 5.3
2018-Jan-18 05:01N 35°13' E 139°46'3 6.8
2018-Jan-18 04:30N 35°10' E 139°49'0 0.0
2018-Jan-18 04:00N 35°10' E 139°49'3 5.8
2018-Jan-18 03:30N 35°12' E 139°46'3 5.9
2018-Jan-18 03:01N 35°13' E 139°43'0 0.0
2018-Jan-18 02:31N 35°13' E 139°43'0 0.2
2018-Jan-18 02:00N 35°13' E 139°43'611.1
2018-Jan-18 01:31N 35°10' E 139°49'0 0.8
2018-Jan-18 01:00N 35°10' E 139°49'6 5.9
2018-Jan-18 00:01N 35°13' E 139°43'0 0.0
2018-Jan-17 23:58N 35°13' E 139°43'  
2018-Jan-12 10:56N 35°10' E 139°49'4 9.2
2018-Jan-12 10:30N 35°12' E 139°45'2 3.9
2018-Jan-12 10:00N 35°13' E 139°43'510.9
2018-Jan-12 09:31N 35°11' E 139°49'1 1.0
2018-Jan-12 09:00N 35°10' E 139°49'611.5
2018-Jan-12 08:31N 35°13' E 139°43'0 0.7
2018-Jan-12 08:00N 35°13' E 139°44'510.8
2018-Jan-12 07:31N 35°10' E 139°49'0 0.1
2018-Jan-12 07:00N 35°10' E 139°49'611.8
2018-Jan-12 06:30N 35°13' E 139°43'0 0.5
2018-Jan-12 06:00N 35°13' E 139°43'0 0.0
2018-Jan-12 05:30N 35°13' E 139°43'2 5.0
2018-Jan-12 05:00N 35°12' E 139°46'4 6.9
2018-Jan-12 04:30N 35°10' E 139°49'0 0.0
2018-Jan-12 04:00N 35°10' E 139°49'3 5.7
2018-Jan-12 03:30N 35°12' E 139°46'3 6.1
2018-Jan-12 03:00N 35°13' E 139°43'0 0.0
2018-Jan-12 02:29N 35°13' E 139°43'0 0.3
2018-Jan-12 02:00N 35°13' E 139°43'510.8
2018-Jan-12 01:30N 35°11' E 139°49'0 0.7
2018-Jan-12 01:00N 35°10' E 139°49'611.3
2018-Jan-12 00:30N 35°13' E 139°43'0 0.5
2018-Jan-11 23:59N 35°13' E 139°43'3 7.2
2018-Jan-11 23:30N 35°12' E 139°47'2 4.9
2018-Jan-11 23:00N 35°10' E 139°49'5 9.5
2018-Jan-11 22:30N 35°13' E 139°44'1 2.3
2018-Jan-11 22:00N 35°13' E 139°43'4 8.9
2018-Jan-11 21:30N 35°11' E 139°48'1 1.5
2018-Jan-11 21:00N 35°11' E 139°48'510.3
2018-Jan-11 20:30N 35°13' E 139°43'0 0.0
2018-Jan-11 01:42N 35°13' E 139°43'0 1.4
2018-Jan-11 01:30N 35°13' E 139°43'1 1.9
2018-Jan-11 01:00N 35°14' E 139°44'1 2.4
2018-Jan-11 00:30N 35°13' E 139°43'0 0.0
2018-Jan-11 00:00N 35°13' E 139°43'4 7.0
2018-Jan-10 23:30N 35°12' E 139°47'2 4.9
2018-Jan-10 23:01N 35°10' E 139°49'510.1
2018-Jan-10 22:30N 35°13' E 139°44'1 1.5
2018-Jan-10 22:00N 35°13' E 139°43'0 0.0
2018-Jan-10 07:53N 35°13' E 139°43'0 0.0
2018-Jan-10 07:30N 35°13' E 139°43'0 0.0
2018-Jan-10 07:00N 35°13' E 139°43'0 0.0
2018-Jan-10 06:30N 35°13' E 139°43'  

Dump ship's entire track history